sensor_id;sensor_type;location;lat;lon;timestamp;pressure;altitude;pressure_sealevel;temperature;humidity
12178;BME280;6152;48.728;9.256;2023-07-31T00:01:31;97141.72;;;15.02;100.00
12178;BME280;6152;48.728;9.256;2023-07-31T00:03:57;97149.84;;;14.99;100.00
12178;BME280;6152;48.728;9.256;2023-07-31T00:06:23;97141.47;;;14.94;100.00
12178;BME280;6152;48.728;9.256;2023-07-31T00:08:49;97137.41;;;14.90;100.00
12178;BME280;6152;48.728;9.256;2023-07-31T00:11:16;97143.03;;;14.85;100.00
12178;BME280;6152;48.728;9.256;2023-07-31T00:13:42;97138.16;;;14.81;100.00
12178;BME280;6152;48.728;9.256;2023-07-31T00:16:08;97136.72;;;14.77;100.00
12178;BME280;6152;48.728;9.256;2023-07-31T00:18:34;97136.94;;;14.74;100.00
12178;BME280;6152;48.728;9.256;2023-07-31T00:21:00;97145.97;;;14.70;100.00
12178;BME280;6152;48.728;9.256;2023-07-31T00:23:26;97140.16;;;14.66;100.00
12178;BME280;6152;48.728;9.256;2023-07-31T00:25:52;97150.03;;;14.62;100.00
12178;BME280;6152;48.728;9.256;2023-07-31T00:28:18;97145.03;;;14.59;100.00
12178;BME280;6152;48.728;9.256;2023-07-31T00:30:44;97142.31;;;14.61;100.00
12178;BME280;6152;48.728;9.256;2023-07-31T00:33:11;97139.53;;;14.62;100.00
12178;BME280;6152;48.728;9.256;2023-07-31T00:35:37;97142.53;;;14.58;100.00
12178;BME280;6152;48.728;9.256;2023-07-31T00:38:03;97142.88;;;14.53;100.00
12178;BME280;6152;48.728;9.256;2023-07-31T00:40:29;97143.94;;;14.51;100.00
12178;BME280;6152;48.728;9.256;2023-07-31T00:42:55;97137.97;;;14.49;100.00
12178;BME280;6152;48.728;9.256;2023-07-31T00:45:22;97138.81;;;14.49;100.00
12178;BME280;6152;48.728;9.256;2023-07-31T00:47:49;97135.50;;;14.47;100.00
12178;BME280;6152;48.728;9.256;2023-07-31T00:50:16;97130.50;;;14.44;100.00
12178;BME280;6152;48.728;9.256;2023-07-31T00:52:42;97133.22;;;14.43;100.00
12178;BME280;6152;48.728;9.256;2023-07-31T00:55:09;97124.41;;;14.44;100.00
12178;BME280;6152;48.728;9.256;2023-07-31T00:57:36;97114.28;;;14.39;100.00
12178;BME280;6152;48.728;9.256;2023-07-31T01:00:03;97124.06;;;14.37;100.00
12178;BME280;6152;48.728;9.256;2023-07-31T01:02:29;97116.41;;;14.34;100.00
12178;BME280;6152;48.728;9.256;2023-07-31T01:04:56;97124.59;;;14.30;100.00
12178;BME280;6152;48.728;9.256;2023-07-31T01:07:42;97125.66;;;14.27;100.00
12178;BME280;6152;48.728;9.256;2023-07-31T01:10:26;97126.47;;;14.28;100.00
12178;BME280;6152;48.728;9.256;2023-07-31T01:12:56;97119.69;;;14.25;100.00
12178;BME280;6152;48.728;9.256;2023-07-31T01:15:23;97115.41;;;14.24;100.00
12178;BME280;6152;48.728;9.256;2023-07-31T01:17:49;97117.81;;;14.27;100.00
12178;BME280;6152;48.728;9.256;2023-07-31T01:20:26;97119.22;;;14.31;100.00
12178;BME280;6152;48.728;9.256;2023-07-31T01:25:35;97118.81;;;14.37;100.00
12178;BME280;6152;48.728;9.256;2023-07-31T01:28:14;97118.81;;;14.37;100.00
12178;BME280;6152;48.728;9.256;2023-07-31T01:30:46;97117.84;;;14.38;100.00
12178;BME280;6152;48.728;9.256;2023-07-31T01:33:17;97108.34;;;14.37;100.00
12178;BME280;6152;48.728;9.256;2023-07-31T01:35:48;97104.97;;;14.35;100.00
12178;BME280;6152;48.728;9.256;2023-07-31T01:38:14;97109.38;;;14.35;100.00
12178;BME280;6152;48.728;9.256;2023-07-31T01:40:42;97108.66;;;14.33;100.00
12178;BME280;6152;48.728;9.256;2023-07-31T01:43:09;97099.34;;;14.29;100.00
12178;BME280;6152;48.728;9.256;2023-07-31T01:45:35;97097.47;;;14.31;100.00
12178;BME280;6152;48.728;9.256;2023-07-31T01:48:01;97100.44;;;14.26;100.00
12178;BME280;6152;48.728;9.256;2023-07-31T01:50:27;97092.56;;;14.26;100.00
12178;BME280;6152;48.728;9.256;2023-07-31T01:52:53;97100.44;;;14.26;100.00
12178;BME280;6152;48.728;9.256;2023-07-31T01:55:19;97096.88;;;14.27;100.00
12178;BME280;6152;48.728;9.256;2023-07-31T01:57:45;97098.28;;;14.31;100.00
12178;BME280;6152;48.728;9.256;2023-07-31T02:00:12;97094.13;;;14.29;100.00
12178;BME280;6152;48.728;9.256;2023-07-31T02:02:38;97094.25;;;14.27;100.00
12178;BME280;6152;48.728;9.256;2023-07-31T02:05:04;97091.84;;;14.24;100.00
12178;BME280;6152;48.728;9.256;2023-07-31T02:07:31;97088.50;;;14.22;100.00
12178;BME280;6152;48.728;9.256;2023-07-31T02:09:57;97088.75;;;14.19;100.00
12178;BME280;6152;48.728;9.256;2023-07-31T02:12:23;97085.88;;;14.22;100.00
12178;BME280;6152;48.728;9.256;2023-07-31T02:14:49;97089.69;;;14.18;100.00
12178;BME280;6152;48.728;9.256;2023-07-31T02:17:15;97074.81;;;14.18;100.00
12178;BME280;6152;48.728;9.256;2023-07-31T02:19:41;97078.50;;;14.16;100.00
12178;BME280;6152;48.728;9.256;2023-07-31T02:22:07;97066.38;;;14.15;100.00
12178;BME280;6152;48.728;9.256;2023-07-31T02:24:33;97068.16;;;14.14;100.00
12178;BME280;6152;48.728;9.256;2023-07-31T02:26:59;97071.00;;;14.11;100.00
12178;BME280;6152;48.728;9.256;2023-07-31T02:29:26;97062.31;;;14.11;100.00
12178;BME280;6152;48.728;9.256;2023-07-31T02:31:52;97060.16;;;14.05;100.00
12178;BME280;6152;48.728;9.256;2023-07-31T02:34:18;97060.63;;;13.99;100.00
12178;BME280;6152;48.728;9.256;2023-07-31T02:36:44;97062.75;;;13.94;100.00
12178;BME280;6152;48.728;9.256;2023-07-31T02:39:10;97059.03;;;13.85;100.00
12178;BME280;6152;48.728;9.256;2023-07-31T02:41:36;97058.66;;;13.79;100.00
12178;BME280;6152;48.728;9.256;2023-07-31T02:44:02;97060.78;;;13.74;100.00
12178;BME280;6152;48.728;9.256;2023-07-31T02:46:28;97058.50;;;13.69;100.00
12178;BME280;6152;48.728;9.256;2023-07-31T02:48:54;97064.78;;;13.66;100.00
12178;BME280;6152;48.728;9.256;2023-07-31T02:51:20;97059.78;;;13.63;100.00
12178;BME280;6152;48.728;9.256;2023-07-31T02:53:47;97058.09;;;13.62;100.00
12178;BME280;6152;48.728;9.256;2023-07-31T02:56:14;97058.25;;;13.61;100.00
12178;BME280;6152;48.728;9.256;2023-07-31T02:58:40;97046.19;;;13.58;100.00
12178;BME280;6152;48.728;9.256;2023-07-31T03:01:06;97056.91;;;13.55;100.00
12178;BME280;6152;48.728;9.256;2023-07-31T03:03:32;97039.78;;;13.51;100.00
12178;BME280;6152;48.728;9.256;2023-07-31T03:05:58;97039.78;;;13.51;100.00
12178;BME280;6152;48.728;9.256;2023-07-31T03:08:24;97039.28;;;13.46;100.00
12178;BME280;6152;48.728;9.256;2023-07-31T03:10:50;97029.75;;;13.45;100.00
12178;BME280;6152;48.728;9.256;2023-07-31T03:13:16;97031.53;;;13.45;100.00
12178;BME280;6152;48.728;9.256;2023-07-31T03:15:43;97040.44;;;13.42;100.00
12178;BME280;6152;48.728;9.256;2023-07-31T03:18:09;97044.22;;;13.38;100.00
12178;BME280;6152;48.728;9.256;2023-07-31T03:20:35;97034.94;;;13.34;100.00
12178;BME280;6152;48.728;9.256;2023-07-31T03:23:01;97045.50;;;13.33;100.00
12178;BME280;6152;48.728;9.256;2023-07-31T03:25:27;97038.59;;;13.32;100.00
12178;BME280;6152;48.728;9.256;2023-07-31T03:27:53;97042.38;;;13.28;100.00
12178;BME280;6152;48.728;9.256;2023-07-31T03:30:20;97057.44;;;13.24;100.00
12178;BME280;6152;48.728;9.256;2023-07-31T03:32:46;97045.97;;;13.27;100.00
12178;BME280;6152;48.728;9.256;2023-07-31T03:35:12;97046.81;;;13.27;100.00
12178;BME280;6152;48.728;9.256;2023-07-31T03:37:38;97038.97;;;13.27;100.00
12178;BME280;6152;48.728;9.256;2023-07-31T03:40:04;97036.34;;;13.27;100.00
12178;BME280;6152;48.728;9.256;2023-07-31T03:42:31;97037.16;;;13.28;100.00
12178;BME280;6152;48.728;9.256;2023-07-31T03:44:57;97038.00;;;13.28;100.00
12178;BME280;6152;48.728;9.256;2023-07-31T03:47:23;97036.53;;;13.24;100.00
12178;BME280;6152;48.728;9.256;2023-07-31T03:49:49;97046.28;;;13.22;100.00
12178;BME280;6152;48.728;9.256;2023-07-31T03:52:15;97049.50;;;13.26;100.00
12178;BME280;6152;48.728;9.256;2023-07-31T03:54:41;97051.91;;;13.29;100.00
12178;BME280;6152;48.728;9.256;2023-07-31T03:57:10;97040.50;;;13.30;100.00
12178;BME280;6152;48.728;9.256;2023-07-31T03:59:37;97040.38;;;13.31;100.00
12178;BME280;6152;48.728;9.256;2023-07-31T04:02:05;97040.38;;;13.31;100.00
12178;BME280;6152;48.728;9.256;2023-07-31T04:04:31;97045.50;;;13.33;100.00
12178;BME280;6152;48.728;9.256;2023-07-31T04:06:57;97047.81;;;13.37;100.00
12178;BME280;6152;48.728;9.256;2023-07-31T04:09:23;97055.50;;;13.39;100.00
12178;BME280;6152;48.728;9.256;2023-07-31T04:11:49;97063.03;;;13.43;100.00
12178;BME280;6152;48.728;9.256;2023-07-31T04:14:16;97053.28;;;13.45;100.00
12178;BME280;6152;48.728;9.256;2023-07-31T04:16:42;97052.97;;;13.50;100.00
12178;BME280;6152;48.728;9.256;2023-07-31T04:19:08;97055.13;;;13.56;100.00
12178;BME280;6152;48.728;9.256;2023-07-31T04:21:34;97045.25;;;13.59;100.00
12178;BME280;6152;48.728;9.256;2023-07-31T04:24:00;97036.97;;;13.65;100.00
12178;BME280;6152;48.728;9.256;2023-07-31T04:26:26;97038.41;;;13.70;100.00
12178;BME280;6152;48.728;9.256;2023-07-31T04:28:52;97035.13;;;13.79;100.00
12178;BME280;6152;48.728;9.256;2023-07-31T04:31:18;97036.53;;;13.83;100.00
12178;BME280;6152;48.728;9.256;2023-07-31T04:33:45;97038.94;;;13.86;100.00
12178;BME280;6152;48.728;9.256;2023-07-31T04:36:11;97029.81;;;13.91;100.00
12178;BME280;6152;48.728;9.256;2023-07-31T04:38:37;97021.13;;;13.91;100.00
12178;BME280;6152;48.728;9.256;2023-07-31T04:41:03;97025.28;;;13.93;100.00
12178;BME280;6152;48.728;9.256;2023-07-31T04:43:31;97033.72;;;13.97;100.00
12178;BME280;6152;48.728;9.256;2023-07-31T04:45:57;97034.91;;;13.93;100.00
12178;BME280;6152;48.728;9.256;2023-07-31T04:48:24;97036.81;;;13.91;100.00
12178;BME280;6152;48.728;9.256;2023-07-31T04:50:50;97042.88;;;13.91;100.00
12178;BME280;6152;48.728;9.256;2023-07-31T04:53:16;97041.81;;;13.94;100.00
12178;BME280;6152;48.728;9.256;2023-07-31T04:55:42;97046.44;;;13.90;100.00
12178;BME280;6152;48.728;9.256;2023-07-31T04:58:08;97040.13;;;13.93;100.00
12178;BME280;6152;48.728;9.256;2023-07-31T05:00:34;97034.47;;;13.99;100.00
12178;BME280;6152;48.728;9.256;2023-07-31T05:03:00;97030.66;;;14.03;100.00
12178;BME280;6152;48.728;9.256;2023-07-31T05:05:26;97027.69;;;14.07;100.00
12178;BME280;6152;48.728;9.256;2023-07-31T05:07:52;97037.22;;;14.08;100.00
12178;BME280;6152;48.728;9.256;2023-07-31T05:10:18;97034.97;;;14.15;100.00
12178;BME280;6152;48.728;9.256;2023-07-31T05:12:45;97032.00;;;14.20;100.00
12178;BME280;6152;48.728;9.256;2023-07-31T05:15:11;97032.22;;;14.28;100.00
12178;BME280;6152;48.728;9.256;2023-07-31T05:17:37;97039.66;;;14.34;100.00
12178;BME280;6152;48.728;9.256;2023-07-31T05:20:03;97043.59;;;14.39;100.00
12178;BME280;6152;48.728;9.256;2023-07-31T05:22:29;97029.78;;;14.37;100.00
12178;BME280;6152;48.728;9.256;2023-07-31T05:24:56;97026.19;;;14.38;100.00
12178;BME280;6152;48.728;9.256;2023-07-31T05:27:22;97031.19;;;14.41;100.00
12178;BME280;6152;48.728;9.256;2023-07-31T05:29:48;97033.81;;;14.41;100.00
12178;BME280;6152;48.728;9.256;2023-07-31T05:32:14;97036.81;;;14.48;100.00
12178;BME280;6152;48.728;9.256;2023-07-31T05:34:40;97040.97;;;14.50;100.00
12178;BME280;6152;48.728;9.256;2023-07-31T05:37:06;97033.34;;;14.58;100.00
12178;BME280;6152;48.728;9.256;2023-07-31T05:39:32;97036.44;;;14.63;100.00
12178;BME280;6152;48.728;9.256;2023-07-31T05:41:58;97031.31;;;14.73;100.00
12178;BME280;6152;48.728;9.256;2023-07-31T05:44:24;97036.56;;;14.84;100.00
12178;BME280;6152;48.728;9.256;2023-07-31T05:46:50;97033.69;;;14.98;100.00
12178;BME280;6152;48.728;9.256;2023-07-31T05:49:17;97035.06;;;15.13;100.00
12178;BME280;6152;48.728;9.256;2023-07-31T05:51:43;97029.44;;;15.29;100.00
12178;BME280;6152;48.728;9.256;2023-07-31T05:54:09;97028.91;;;15.46;100.00
12178;BME280;6152;48.728;9.256;2023-07-31T05:56:35;97032.03;;;15.72;100.00
12178;BME280;6152;48.728;9.256;2023-07-31T05:59:01;97017.28;;;15.92;100.00
12178;BME280;6152;48.728;9.256;2023-07-31T06:01:28;97013.50;;;16.05;100.00
12178;BME280;6152;48.728;9.256;2023-07-31T06:03:54;97013.81;;;16.12;100.00
12178;BME280;6152;48.728;9.256;2023-07-31T06:06:20;97010.59;;;16.29;100.00
12178;BME280;6152;48.728;9.256;2023-07-31T06:08:47;97017.16;;;16.44;100.00
12178;BME280;6152;48.728;9.256;2023-07-31T06:11:13;97022.16;;;16.47;100.00
12178;BME280;6152;48.728;9.256;2023-07-31T06:13:39;97020.44;;;16.57;100.00
12178;BME280;6152;48.728;9.256;2023-07-31T06:16:05;97019.94;;;16.73;100.00
12178;BME280;6152;48.728;9.256;2023-07-31T06:18:35;97018.06;;;16.94;100.00
12178;BME280;6152;48.728;9.256;2023-07-31T06:21:01;97014.50;;;17.05;100.00
12178;BME280;6152;48.728;9.256;2023-07-31T06:23:27;97021.84;;;17.11;100.00
12178;BME280;6152;48.728;9.256;2023-07-31T06:25:53;97021.41;;;17.06;100.00
12178;BME280;6152;48.728;9.256;2023-07-31T06:28:19;97018.94;;;17.14;100.00
12178;BME280;6152;48.728;9.256;2023-07-31T06:30:45;97012.59;;;17.26;100.00
12178;BME280;6152;48.728;9.256;2023-07-31T06:33:11;97019.50;;;17.17;100.00
12178;BME280;6152;48.728;9.256;2023-07-31T06:35:38;97021.44;;;17.25;100.00
12178;BME280;6152;48.728;9.256;2023-07-31T06:38:04;97020.66;;;17.53;100.00
12178;BME280;6152;48.728;9.256;2023-07-31T06:40:30;97016.13;;;17.75;100.00
12178;BME280;6152;48.728;9.256;2023-07-31T06:42:56;97021.78;;;17.89;100.00
12178;BME280;6152;48.728;9.256;2023-07-31T06:45:22;97020.38;;;17.95;100.00
12178;BME280;6152;48.728;9.256;2023-07-31T06:47:48;97020.91;;;18.08;100.00
12178;BME280;6152;48.728;9.256;2023-07-31T06:50:15;97026.03;;;18.19;100.00
12178;BME280;6152;48.728;9.256;2023-07-31T06:52:41;97021.44;;;18.21;100.00
12178;BME280;6152;48.728;9.256;2023-07-31T06:55:25;97025.31;;;18.17;100.00
12178;BME280;6152;48.728;9.256;2023-07-31T06:57:53;97019.22;;;18.26;100.00
12178;BME280;6152;48.728;9.256;2023-07-31T07:00:21;97025.00;;;18.39;100.00
12178;BME280;6152;48.728;9.256;2023-07-31T07:02:48;97032.78;;;18.50;100.00
12178;BME280;6152;48.728;9.256;2023-07-31T07:05:16;97032.03;;;18.48;100.00
12178;BME280;6152;48.728;9.256;2023-07-31T07:07:43;97026.88;;;18.66;100.00
12178;BME280;6152;48.728;9.256;2023-07-31T07:10:09;97035.50;;;18.68;100.00
12178;BME280;6152;48.728;9.256;2023-07-31T07:12:35;97032.94;;;18.86;100.00
12178;BME280;6152;48.728;9.256;2023-07-31T07:15:02;97035.63;;;18.94;100.00
12178;BME280;6152;48.728;9.256;2023-07-31T07:17:29;97030.78;;;18.99;100.00
12178;BME280;6152;48.728;9.256;2023-07-31T07:19:59;97023.72;;;18.90;100.00
12178;BME280;6152;48.728;9.256;2023-07-31T07:22:26;97023.03;;;19.15;100.00
12178;BME280;6152;48.728;9.256;2023-07-31T07:24:53;97028.69;;;19.47;100.00
12178;BME280;6152;48.728;9.256;2023-07-31T07:27:19;97019.25;;;19.80;100.00
12178;BME280;6152;48.728;9.256;2023-07-31T07:29:46;97014.25;;;20.12;95.42
12178;BME280;6152;48.728;9.256;2023-07-31T07:32:12;97011.09;;;20.17;95.38
12178;BME280;6152;48.728;9.256;2023-07-31T07:34:38;97017.00;;;20.29;93.78
12178;BME280;6152;48.728;9.256;2023-07-31T07:37:05;96999.81;;;20.50;92.52
12178;BME280;6152;48.728;9.256;2023-07-31T07:39:31;97015.28;;;20.45;95.90
12178;BME280;6152;48.728;9.256;2023-07-31T07:41:57;97009.56;;;20.50;95.10
12178;BME280;6152;48.728;9.256;2023-07-31T07:44:23;97010.53;;;20.49;96.46
12178;BME280;6152;48.728;9.256;2023-07-31T07:46:49;97001.22;;;20.37;96.94
12178;BME280;6152;48.728;9.256;2023-07-31T07:49:15;97009.50;;;20.42;97.75
12178;BME280;6152;48.728;9.256;2023-07-31T07:51:42;97004.97;;;20.60;96.66
12178;BME280;6152;48.728;9.256;2023-07-31T07:54:08;97007.19;;;20.73;90.37
12178;BME280;6152;48.728;9.256;2023-07-31T07:56:34;97006.53;;;20.71;89.15
12178;BME280;6152;48.728;9.256;2023-07-31T07:59:02;97009.34;;;20.77;90.27
12178;BME280;6152;48.728;9.256;2023-07-31T08:01:28;97001.50;;;21.01;89.22
12178;BME280;6152;48.728;9.256;2023-07-31T08:03:54;96995.16;;;21.20;79.61
12178;BME280;6152;48.728;9.256;2023-07-31T08:06:21;97006.78;;;21.43;77.75
12178;BME280;6152;48.728;9.256;2023-07-31T08:08:48;97009.78;;;21.56;79.38
12178;BME280;6152;48.728;9.256;2023-07-31T08:11:14;96989.25;;;21.50;77.40
12178;BME280;6152;48.728;9.256;2023-07-31T08:13:40;96988.47;;;21.90;76.89
12178;BME280;6152;48.728;9.256;2023-07-31T08:16:07;96997.88;;;21.77;75.57
12178;BME280;6152;48.728;9.256;2023-07-31T08:18:33;96990.13;;;22.07;72.77
12178;BME280;6152;48.728;9.256;2023-07-31T08:20:59;96996.88;;;22.34;74.29
12178;BME280;6152;48.728;9.256;2023-07-31T08:23:27;96990.63;;;22.19;76.63
12178;BME280;6152;48.728;9.256;2023-07-31T08:25:53;96987.38;;;22.48;72.39
12178;BME280;6152;48.728;9.256;2023-07-31T08:28:19;96988.38;;;22.71;70.47
12178;BME280;6152;48.728;9.256;2023-07-31T08:30:45;96991.22;;;23.31;66.53
12178;BME280;6152;48.728;9.256;2023-07-31T08:33:11;96969.84;;;23.55;64.08
12178;BME280;6152;48.728;9.256;2023-07-31T08:35:37;96977.13;;;23.61;62.64
12178;BME280;6152;48.728;9.256;2023-07-31T08:38:04;96968.25;;;23.46;63.67
12178;BME280;6152;48.728;9.256;2023-07-31T08:40:30;96977.63;;;23.80;58.13
12178;BME280;6152;48.728;9.256;2023-07-31T08:42:57;96994.06;;;24.43;56.53
12178;BME280;6152;48.728;9.256;2023-07-31T08:45:28;96969.53;;;24.77;54.75
12178;BME280;6152;48.728;9.256;2023-07-31T08:47:56;96963.81;;;25.45;56.51
12178;BME280;6152;48.728;9.256;2023-07-31T08:50:23;96948.63;;;25.82;50.78
12178;BME280;6152;48.728;9.256;2023-07-31T08:52:51;96937.19;;;25.88;49.53
12178;BME280;6152;48.728;9.256;2023-07-31T08:55:18;96948.28;;;26.40;47.12
12178;BME280;6152;48.728;9.256;2023-07-31T08:57:51;96955.66;;;26.38;47.89
12178;BME280;6152;48.728;9.256;2023-07-31T09:00:18;96951.50;;;26.29;47.67
12178;BME280;6152;48.728;9.256;2023-07-31T09:02:54;96960.50;;;26.28;47.78
12178;BME280;6152;48.728;9.256;2023-07-31T09:05:23;96955.22;;;26.13;47.61
12178;BME280;6152;48.728;9.256;2023-07-31T09:07:50;96949.06;;;27.03;46.13
12178;BME280;6152;48.728;9.256;2023-07-31T09:10:17;96940.13;;;27.43;44.38
12178;BME280;6152;48.728;9.256;2023-07-31T09:12:43;96928.50;;;28.10;41.79
12178;BME280;6152;48.728;9.256;2023-07-31T09:15:11;96929.06;;;28.45;41.27
12178;BME280;6152;48.728;9.256;2023-07-31T09:17:37;96926.16;;;28.59;40.88
12178;BME280;6152;48.728;9.256;2023-07-31T09:22:40;96935.66;;;29.20;39.33
12178;BME280;6152;48.728;9.256;2023-07-31T09:25:25;96933.41;;;29.86;37.04
12178;BME280;6152;48.728;9.256;2023-07-31T09:28:01;96940.41;;;30.43;37.01
12178;BME280;6152;48.728;9.256;2023-07-31T09:30:27;96934.97;;;29.31;37.17
12178;BME280;6152;48.728;9.256;2023-07-31T09:33:06;96935.72;;;29.44;38.13
12178;BME280;6152;48.728;9.256;2023-07-31T09:35:36;96934.44;;;27.73;40.65
12178;BME280;6152;48.728;9.256;2023-07-31T09:38:12;96934.72;;;26.42;44.08
12178;BME280;6152;48.728;9.256;2023-07-31T09:40:40;96938.81;;;26.38;44.54
12178;BME280;6152;48.728;9.256;2023-07-31T09:43:09;96930.69;;;26.52;44.25
12178;BME280;6152;48.728;9.256;2023-07-31T09:45:37;96929.72;;;25.55;46.58
12178;BME280;6152;48.728;9.256;2023-07-31T09:48:07;96918.16;;;25.70;47.00
12178;BME280;6152;48.728;9.256;2023-07-31T09:50:37;96919.97;;;24.91;49.21
12178;BME280;6152;48.728;9.256;2023-07-31T09:53:05;96912.22;;;23.79;54.39
12178;BME280;6152;48.728;9.256;2023-07-31T09:55:31;96898.69;;;23.65;58.08
12178;BME280;6152;48.728;9.256;2023-07-31T09:57:58;96900.59;;;24.09;56.58
12178;BME280;6152;48.728;9.256;2023-07-31T10:00:24;96888.56;;;25.43;50.56
12178;BME280;6152;48.728;9.256;2023-07-31T10:02:53;96890.59;;;24.99;51.63
12178;BME280;6152;48.728;9.256;2023-07-31T10:05:20;96891.84;;;24.23;53.89
12178;BME280;6152;48.728;9.256;2023-07-31T10:07:55;96883.97;;;23.78;56.16
12178;BME280;6152;48.728;9.256;2023-07-31T10:10:25;96877.66;;;23.79;57.92
12178;BME280;6152;48.728;9.256;2023-07-31T10:12:54;96864.25;;;23.87;58.29
12178;BME280;6152;48.728;9.256;2023-07-31T10:15:22;96869.06;;;23.54;58.71
12178;BME280;6152;48.728;9.256;2023-07-31T10:17:49;96864.59;;;23.09;59.20
12178;BME280;6152;48.728;9.256;2023-07-31T10:20:16;96853.19;;;23.23;61.63
12178;BME280;6152;48.728;9.256;2023-07-31T10:22:45;96854.56;;;24.52;54.60
12178;BME280;6152;48.728;9.256;2023-07-31T10:25:12;96862.31;;;25.40;51.85
12178;BME280;6152;48.728;9.256;2023-07-31T10:27:42;96859.66;;;26.17;49.45
12178;BME280;6152;48.728;9.256;2023-07-31T10:30:18;96852.97;;;27.75;44.56
12178;BME280;6152;48.728;9.256;2023-07-31T10:32:46;96856.25;;;28.17;42.39
12178;BME280;6152;48.728;9.256;2023-07-31T10:35:16;96863.38;;;27.18;42.20
12178;BME280;6152;48.728;9.256;2023-07-31T10:37:43;96854.38;;;25.96;45.36
12178;BME280;6152;48.728;9.256;2023-07-31T10:40:17;96844.91;;;26.69;45.06
12178;BME280;6152;48.728;9.256;2023-07-31T10:42:49;96831.94;;;28.05;42.24
12178;BME280;6152;48.728;9.256;2023-07-31T10:45:36;96833.59;;;28.19;41.68
12178;BME280;6152;48.728;9.256;2023-07-31T10:50:31;96833.78;;;28.11;41.02
12178;BME280;6152;48.728;9.256;2023-07-31T10:52:59;96846.88;;;26.40;44.19
12178;BME280;6152;48.728;9.256;2023-07-31T10:55:39;96835.28;;;27.68;43.27
12178;BME280;6152;48.728;9.256;2023-07-31T10:58:07;96834.03;;;27.70;43.27
12178;BME280;6152;48.728;9.256;2023-07-31T11:00:33;96839.47;;;26.90;43.77
12178;BME280;6152;48.728;9.256;2023-07-31T11:03:10;96834.78;;;27.11;42.87
12178;BME280;6152;48.728;9.256;2023-07-31T11:05:52;96831.16;;;27.85;42.18
12178;BME280;6152;48.728;9.256;2023-07-31T11:08:26;96824.13;;;29.12;40.47
12178;BME280;6152;48.728;9.256;2023-07-31T11:13:28;96821.56;;;26.84;42.88
12178;BME280;6152;48.728;9.256;2023-07-31T11:15:54;96826.22;;;27.55;41.68
12178;BME280;6152;48.728;9.256;2023-07-31T11:18:20;96827.44;;;27.73;40.52
12178;BME280;6152;48.728;9.256;2023-07-31T11:20:47;96824.19;;;27.64;41.53
12178;BME280;6152;48.728;9.256;2023-07-31T11:23:15;96828.66;;;27.44;41.23
12178;BME280;6152;48.728;9.256;2023-07-31T11:25:41;96825.44;;;26.81;42.35
12178;BME280;6152;48.728;9.256;2023-07-31T11:28:10;96832.56;;;25.86;45.00
12178;BME280;6152;48.728;9.256;2023-07-31T11:30:38;96835.94;;;26.01;45.64
12178;BME280;6152;48.728;9.256;2023-07-31T11:33:05;96835.03;;;25.87;46.59
12178;BME280;6152;48.728;9.256;2023-07-31T11:35:40;96836.00;;;25.80;47.41
12178;BME280;6152;48.728;9.256;2023-07-31T11:38:08;96824.97;;;26.17;45.25
12178;BME280;6152;48.728;9.256;2023-07-31T11:40:42;96821.47;;;25.82;46.07
12178;BME280;6152;48.728;9.256;2023-07-31T11:43:09;96831.88;;;24.71;48.46
12178;BME280;6152;48.728;9.256;2023-07-31T11:45:35;96826.50;;;24.35;50.20
12178;BME280;6152;48.728;9.256;2023-07-31T11:48:02;96824.88;;;24.05;52.32
12178;BME280;6152;48.728;9.256;2023-07-31T11:50:28;96823.56;;;24.01;54.54
12178;BME280;6152;48.728;9.256;2023-07-31T11:53:07;96825.22;;;24.02;54.74
12178;BME280;6152;48.728;9.256;2023-07-31T11:55:35;96810.91;;;23.74;55.64
12178;BME280;6152;48.728;9.256;2023-07-31T11:58:01;96800.56;;;23.79;56.02
12178;BME280;6152;48.728;9.256;2023-07-31T12:00:28;96805.78;;;23.57;56.98
12178;BME280;6152;48.728;9.256;2023-07-31T12:02:54;96795.84;;;23.51;57.32
12178;BME280;6152;48.728;9.256;2023-07-31T12:05:22;96799.69;;;23.49;58.72
12178;BME280;6152;48.728;9.256;2023-07-31T12:07:54;96787.72;;;23.53;58.12
12178;BME280;6152;48.728;9.256;2023-07-31T12:13:07;96775.47;;;23.29;60.69
12178;BME280;6152;48.728;9.256;2023-07-31T12:15:38;96773.72;;;22.99;62.51
12178;BME280;6152;48.728;9.256;2023-07-31T12:18:10;96773.69;;;22.84;64.21
12178;BME280;6152;48.728;9.256;2023-07-31T12:20:44;96767.84;;;22.89;63.51
12178;BME280;6152;48.728;9.256;2023-07-31T12:23:18;96767.13;;;22.72;65.42
12178;BME280;6152;48.728;9.256;2023-07-31T12:25:45;96775.28;;;22.71;66.77
12178;BME280;6152;48.728;9.256;2023-07-31T12:28:11;96768.16;;;22.63;68.42
12178;BME280;6152;48.728;9.256;2023-07-31T12:30:39;96767.94;;;22.73;68.08
12178;BME280;6152;48.728;9.256;2023-07-31T12:33:11;96753.19;;;22.47;70.59
12178;BME280;6152;48.728;9.256;2023-07-31T12:35:40;96763.53;;;22.88;66.71
12178;BME280;6152;48.728;9.256;2023-07-31T12:38:07;96759.84;;;23.11;66.54
12178;BME280;6152;48.728;9.256;2023-07-31T12:40:33;96753.19;;;23.15;66.76
12178;BME280;6152;48.728;9.256;2023-07-31T12:43:01;96749.16;;;23.20;65.06
12178;BME280;6152;48.728;9.256;2023-07-31T12:45:29;96739.50;;;23.04;65.68
12178;BME280;6152;48.728;9.256;2023-07-31T12:47:57;96737.75;;;22.74;67.81
12178;BME280;6152;48.728;9.256;2023-07-31T12:50:23;96741.38;;;22.50;70.46
12178;BME280;6152;48.728;9.256;2023-07-31T12:52:49;96744.44;;;22.39;70.49
12178;BME280;6152;48.728;9.256;2023-07-31T12:55:16;96740.66;;;22.33;71.62
12178;BME280;6152;48.728;9.256;2023-07-31T12:57:42;96720.03;;;22.43;72.78
12178;BME280;6152;48.728;9.256;2023-07-31T13:00:08;96723.66;;;22.50;74.34
12178;BME280;6152;48.728;9.256;2023-07-31T13:02:35;96720.44;;;22.55;71.65
12178;BME280;6152;48.728;9.256;2023-07-31T13:05:01;96720.16;;;22.50;74.20
12178;BME280;6152;48.728;9.256;2023-07-31T13:07:27;96716.75;;;22.64;70.50
12178;BME280;6152;48.728;9.256;2023-07-31T13:09:53;96712.63;;;22.61;72.15
12178;BME280;6152;48.728;9.256;2023-07-31T13:12:19;96706.28;;;22.71;73.12
12178;BME280;6152;48.728;9.256;2023-07-31T13:14:45;96702.50;;;22.65;70.90
12178;BME280;6152;48.728;9.256;2023-07-31T13:17:11;96698.06;;;22.57;72.20
12178;BME280;6152;48.728;9.256;2023-07-31T13:19:37;96701.34;;;22.68;69.42